createdAt,value
2019-01-21T00:00:42.673Z,22.20
2019-01-21T00:03:14.359Z,22.30
2019-01-21T00:05:41.010Z,23.40
2019-01-21T00:08:07.189Z,23.50
2019-01-21T00:10:34.290Z,22.20
2019-01-21T00:13:02.819Z,22.00
2019-01-21T00:15:31.002Z,23.40
2019-01-21T00:17:59.024Z,24.25
2019-01-21T00:20:41.293Z,22.62
2019-01-21T00:23:13.163Z,22.02
2019-01-21T00:25:47.182Z,21.05
2019-01-21T00:28:13.192Z,22.50
2019-01-21T00:30:39.325Z,22.95
2019-01-21T00:33:05.582Z,23.42
2019-01-21T00:35:33.790Z,23.70
2019-01-21T00:37:59.814Z,23.62
2019-01-21T00:40:26.033Z,23.20
2019-01-21T00:42:52.076Z,22.73
2019-01-21T00:45:32.337Z,21.93
2019-01-21T00:48:08.395Z,25.08
2019-01-21T00:50:34.538Z,23.40
2019-01-21T00:53:15.996Z,24.43
2019-01-21T00:55:42.059Z,22.32
2019-01-21T00:58:08.117Z,21.02
2019-01-21T01:00:34.536Z,22.40
2019-01-21T01:03:05.556Z,21.80
2019-01-21T01:05:34.788Z,22.42
2019-01-21T01:08:07.293Z,23.70
2019-01-21T01:10:33.392Z,23.62
2019-01-21T01:12:59.459Z,23.18
2019-01-21T01:15:28.577Z,23.57
2019-01-21T01:17:55.725Z,22.98
2019-01-21T01:20:21.826Z,22.45
2019-01-21T01:22:48.993Z,22.15
2019-01-21T01:25:17.054Z,22.13
2019-01-21T01:27:51.793Z,22.62
2019-01-21T01:30:19.870Z,23.10
2019-01-21T01:32:54.300Z,21.40
2019-01-21T01:35:20.421Z,22.40
2019-01-21T01:37:46.949Z,22.17
2019-01-21T01:40:19.806Z,24.00
2019-01-21T01:42:54.774Z,22.25
2019-01-21T01:45:26.680Z,22.93
2019-01-21T01:47:57.366Z,22.05
2019-01-21T01:50:34.557Z,22.82
2019-01-21T01:53:00.686Z,21.90
2019-01-21T01:55:32.314Z,25.40
2019-01-21T01:58:01.731Z,22.60
2019-01-21T02:00:32.082Z,22.73
2019-01-21T02:02:58.084Z,23.10
2019-01-21T02:05:31.408Z,22.90
2019-01-21T02:07:58.709Z,22.75
2019-01-21T02:10:28.549Z,23.75
2019-01-21T02:12:54.950Z,21.52
2019-01-21T02:15:21.261Z,23.50
2019-01-21T02:17:52.166Z,22.95
2019-01-21T02:20:18.542Z,23.65
2019-01-21T02:22:48.722Z,23.35
2019-01-21T02:25:15.184Z,24.05
2019-01-21T02:28:08.920Z,23.40
2019-01-21T02:31:10.380Z,20.65
2019-01-21T02:34:12.395Z,21.60
2019-01-21T02:37:11.436Z,22.82
2019-01-21T02:40:22.379Z,21.80
2019-01-21T02:43:01.396Z,22.48
2019-01-21T02:45:55.679Z,21.48
2019-01-21T02:48:40.313Z,23.92
2019-01-21T02:51:28.619Z,24.10
2019-01-21T02:54:01.310Z,23.32
2019-01-21T02:56:37.075Z,22.20
2019-01-21T02:59:18.738Z,24.20
2019-01-21T03:02:11.612Z,23.73
2019-01-21T03:05:19.266Z,22.42
2019-01-21T03:07:52.928Z,20.43
2019-01-21T03:10:28.935Z,22.10
2019-01-21T03:13:32.350Z,21.75
2019-01-21T03:16:17.068Z,22.30
2019-01-21T03:18:59.243Z,23.10
2019-01-21T03:21:49.109Z,23.15
2019-01-21T03:24:45.054Z,23.55
2019-01-21T03:27:31.630Z,21.87
2019-01-21T03:30:22.118Z,23.45
2019-01-21T03:33:13.006Z,20.85
2019-01-21T03:36:00.748Z,22.58
2019-01-21T03:38:48.748Z,23.10
2019-01-21T03:41:23.205Z,22.77
2019-01-21T03:44:03.543Z,21.35
2019-01-21T03:46:51.017Z,21.27
2019-01-21T03:49:29.015Z,22.17
2019-01-21T03:52:37.649Z,20.95
2019-01-21T03:55:08.664Z,24.60
2019-01-21T03:58:05.740Z,23.42
2019-01-21T04:00:43.803Z,23.57
2019-01-21T04:03:37.905Z,22.80
2019-01-21T04:06:07.880Z,23.60
2019-01-21T04:08:54.107Z,22.98
2019-01-21T04:11:31.997Z,22.07
2019-01-21T04:14:42.459Z,23.18
2019-01-21T04:17:16.308Z,25.08
2019-01-21T04:19:51.738Z,26.35
2019-01-21T04:22:29.254Z,24.05
2019-01-21T04:25:25.795Z,25.65
2019-01-21T04:28:04.603Z,23.80
2019-01-21T04:30:36.575Z,24.70
2019-01-21T04:33:19.090Z,26.15
2019-01-21T04:35:51.738Z,22.70
2019-01-21T04:38:29.981Z,25.80
2019-01-21T04:41:11.506Z,25.60
2019-01-21T04:43:56.582Z,24.52
2019-01-21T04:46:48.203Z,24.25
2019-01-21T04:49:51.725Z,25.00
2019-01-21T04:52:22.691Z,25.10
2019-01-21T04:55:12.754Z,26.57
2019-01-21T04:58:04.299Z,25.95
2019-01-21T05:00:55.289Z,26.05
2019-01-21T05:03:31.262Z,24.60
2019-01-21T05:06:14.920Z,26.10
2019-01-21T05:08:55.446Z,25.77
2019-01-21T05:11:46.200Z,26.20
2019-01-21T05:14:25.207Z,26.65
2019-01-21T05:17:14.556Z,26.55
2019-01-21T05:20:05.896Z,26.52
2019-01-21T05:22:38.688Z,28.40
2019-01-21T05:25:27.842Z,25.92
2019-01-21T05:28:11.488Z,24.32
2019-01-21T05:30:58.000Z,26.40
2019-01-21T05:33:37.317Z,25.23
2019-01-21T05:36:11.077Z,27.55
2019-01-21T05:39:06.915Z,27.17
2019-01-21T05:42:05.405Z,26.82
2019-01-21T05:44:44.490Z,28.32
2019-01-21T05:47:35.898Z,26.50
2019-01-21T05:50:11.975Z,26.62
2019-01-21T05:53:13.875Z,26.45
2019-01-21T05:56:20.651Z,25.40
2019-01-21T05:59:10.522Z,27.05
2019-01-21T06:01:54.798Z,26.15
2019-01-21T06:04:45.116Z,25.92
2019-01-21T06:07:34.667Z,25.05
2019-01-21T06:10:38.307Z,26.65
2019-01-21T06:13:20.228Z,25.88
2019-01-21T06:16:18.182Z,27.52
2019-01-21T06:18:57.518Z,27.00
2019-01-21T06:21:47.180Z,25.60
2019-01-21T06:24:19.708Z,25.60
2019-01-21T06:26:58.590Z,27.20
2019-01-21T06:29:41.787Z,26.15
2019-01-21T06:32:34.866Z,25.88
2019-01-21T06:35:05.762Z,24.80
2019-01-21T06:37:44.405Z,26.42
2019-01-21T06:40:37.377Z,27.13
2019-01-21T06:43:09.824Z,25.57
2019-01-21T06:45:54.644Z,26.55
2019-01-21T06:48:35.270Z,26.65
2019-01-21T06:51:32.307Z,27.02
2019-01-21T06:54:21.375Z,30.52
2019-01-21T06:57:25.227Z,27.22
2019-01-21T06:59:57.120Z,28.25
2019-01-21T07:02:59.204Z,49.00
2019-01-21T07:05:59.802Z,27.75
2019-01-21T07:08:41.072Z,26.87
2019-01-21T07:11:24.268Z,26.52
2019-01-21T07:14:00.088Z,27.17
2019-01-21T07:16:51.512Z,26.97
2019-01-21T07:19:31.497Z,28.12
2019-01-21T07:22:08.035Z,25.95
2019-01-21T07:24:47.002Z,28.60
2019-01-21T07:27:19.868Z,28.17
2019-01-21T07:29:50.726Z,30.00
2019-01-21T07:32:55.419Z,29.40
2019-01-21T07:35:42.045Z,26.55
2019-01-21T07:38:15.701Z,25.57
2019-01-21T07:41:05.771Z,26.00
2019-01-21T07:43:38.744Z,26.73
2019-01-21T07:46:12.682Z,29.10
2019-01-21T07:49:22.283Z,26.82
2019-01-21T07:52:27.080Z,30.12
2019-01-21T07:55:21.675Z,29.10
2019-01-21T07:58:26.149Z,30.08
2019-01-21T08:01:13.508Z,39.25
2019-01-21T08:03:47.449Z,40.52
2019-01-21T08:06:20.522Z,29.07
2019-01-21T08:09:00.358Z,30.80
2019-01-21T08:12:09.907Z,30.82
2019-01-21T08:14:43.077Z,27.42
2019-01-21T08:17:27.371Z,27.73
2019-01-21T08:20:03.076Z,28.35
2019-01-21T08:23:15.973Z,27.77
2019-01-21T08:25:49.316Z,27.27
2019-01-21T08:28:56.212Z,28.15
2019-01-21T08:31:39.404Z,29.82
2019-01-21T08:34:48.312Z,28.23
2019-01-21T08:37:32.625Z,28.32
2019-01-21T08:40:05.195Z,26.75
2019-01-21T08:42:46.274Z,28.80
2019-01-21T08:46:04.167Z,28.90
2019-01-21T08:48:53.483Z,29.90
2019-01-21T08:51:29.333Z,28.32
2019-01-21T08:54:11.572Z,25.65
2019-01-21T08:56:58.696Z,27.48
2019-01-21T08:59:56.262Z,29.12
2019-01-21T09:02:41.567Z,26.55
2019-01-21T09:05:37.428Z,25.70
2019-01-21T09:08:37.446Z,29.32
2019-01-21T09:11:26.911Z,26.73
2019-01-21T09:14:01.443Z,25.62
2019-01-21T09:16:48.429Z,26.50
2019-01-21T09:19:37.236Z,24.75
2019-01-21T09:22:31.403Z,25.00
2019-01-21T09:25:13.593Z,26.12
2019-01-21T09:28:07.317Z,24.70
2019-01-21T09:30:48.238Z,23.38
2019-01-21T09:33:28.492Z,25.10
2019-01-21T09:35:58.453Z,27.00
2019-01-21T09:38:47.277Z,24.52
2019-01-21T09:41:29.478Z,22.52
2019-01-21T09:44:12.811Z,28.65
2019-01-21T09:47:08.407Z,25.12
2019-01-21T09:49:35.228Z,25.12
2019-01-21T09:52:03.226Z,26.12
2019-01-21T09:54:29.368Z,25.72
2019-01-21T09:57:06.511Z,25.70
2019-01-21T09:59:35.943Z,24.90
2019-01-21T10:02:04.823Z,25.15
2019-01-21T10:04:35.405Z,26.35
2019-01-21T10:07:17.370Z,26.62
2019-01-21T10:09:55.347Z,24.92
2019-01-21T10:12:54.078Z,25.72
2019-01-21T10:15:43.844Z,23.55
2019-01-21T10:18:44.962Z,25.10
2019-01-21T10:21:48.623Z,24.40
2019-01-21T10:24:34.885Z,23.98
2019-01-21T10:27:28.595Z,25.97
2019-01-21T10:30:15.160Z,24.25
2019-01-21T10:33:18.672Z,23.98
2019-01-21T10:36:12.446Z,23.40
2019-01-21T10:38:58.079Z,24.90
2019-01-21T10:41:35.464Z,25.43
2019-01-21T10:44:21.023Z,25.55
2019-01-21T10:47:06.177Z,23.80
2019-01-21T10:49:57.443Z,23.87
2019-01-21T10:52:51.334Z,23.57
2019-01-21T10:55:36.588Z,24.35
2019-01-21T10:58:21.103Z,27.65
2019-01-21T11:01:13.506Z,23.47
2019-01-21T11:04:07.616Z,23.92
2019-01-21T11:07:10.711Z,23.45
2019-01-21T11:09:55.743Z,25.80
2019-01-21T11:12:30.407Z,24.47
2019-01-21T11:15:18.699Z,23.22
2019-01-21T11:17:58.814Z,23.77
2019-01-21T11:20:57.962Z,22.17
2019-01-21T11:24:03.676Z,22.32
2019-01-21T11:27:10.229Z,22.82
2019-01-21T11:30:18.966Z,23.62
2019-01-21T11:33:32.759Z,23.20
2019-01-21T11:36:31.246Z,22.95
2019-01-21T11:39:14.973Z,23.57
2019-01-21T11:42:15.929Z,23.75
2019-01-21T11:44:54.240Z,22.50
2019-01-21T11:47:49.490Z,21.05
2019-01-21T11:50:42.570Z,22.25
2019-01-21T11:53:53.287Z,22.80
2019-01-21T11:56:52.486Z,21.73
2019-01-21T12:00:10.400Z,23.40
2019-01-21T12:02:42.169Z,22.87
2019-01-21T12:05:22.422Z,25.77
2019-01-21T12:08:26.092Z,26.37
2019-01-21T12:11:42.844Z,22.45
2019-01-21T12:14:48.755Z,24.12
2019-01-21T12:17:35.043Z,24.12
2019-01-21T12:20:23.175Z,22.05
2019-01-21T12:22:55.928Z,22.60
2019-01-21T12:25:48.170Z,22.58
2019-01-21T12:28:52.948Z,23.90
2019-01-21T12:31:42.754Z,23.00
2019-01-21T12:34:46.597Z,23.00
2019-01-21T12:37:33.608Z,23.62
2019-01-21T12:40:32.128Z,21.33
2019-01-21T12:43:17.397Z,21.87
2019-01-21T12:45:58.289Z,22.10
2019-01-21T12:48:34.282Z,25.05
2019-01-21T12:51:18.930Z,22.35
2019-01-21T12:54:12.075Z,21.37
2019-01-21T12:57:11.082Z,23.77
2019-01-21T13:00:00.635Z,22.37
2019-01-21T13:02:51.659Z,21.48
2019-01-21T13:05:54.038Z,21.70
2019-01-21T13:08:45.246Z,24.20
2019-01-21T13:12:02.509Z,20.55
2019-01-21T13:14:37.440Z,21.97
2019-01-21T13:17:20.088Z,22.62
2019-01-21T13:20:15.148Z,22.17
2019-01-21T13:22:56.125Z,24.12
2019-01-21T13:25:38.281Z,23.22
2019-01-21T13:28:23.301Z,23.60
2019-01-21T13:31:26.984Z,22.58
2019-01-21T13:34:05.976Z,24.02
2019-01-21T13:36:44.125Z,23.55
2019-01-21T13:39:36.772Z,22.82
2019-01-21T13:42:29.752Z,24.52
2019-01-21T13:45:19.237Z,25.12
2019-01-21T13:48:05.103Z,25.48
2019-01-21T13:50:37.255Z,23.65
2019-01-21T13:53:07.868Z,25.10
2019-01-21T13:55:41.771Z,25.20
2019-01-21T13:58:40.876Z,27.62
2019-01-21T14:01:29.822Z,28.55
2019-01-21T14:04:15.092Z,28.37
2019-01-21T14:07:09.927Z,27.50
2019-01-21T14:09:51.041Z,27.70
2019-01-21T14:12:28.750Z,27.20
2019-01-21T14:15:27.164Z,26.80
2019-01-21T14:18:15.413Z,27.43
2019-01-21T14:21:15.520Z,26.70
2019-01-21T14:24:21.081Z,29.20
2019-01-21T14:27:24.727Z,26.07
2019-01-21T14:30:09.988Z,27.63
2019-01-21T14:32:39.929Z,26.90
2019-01-21T14:35:29.322Z,26.83
2019-01-21T14:38:42.335Z,25.20
2019-01-21T14:44:50.254Z,26.80
2019-01-21T14:47:50.313Z,26.57
2019-01-21T14:50:32.366Z,25.43
2019-01-21T14:53:02.266Z,28.23
2019-01-21T14:56:12.963Z,25.25
2019-01-21T14:59:03.258Z,25.97
2019-01-21T15:01:37.526Z,26.77
2019-01-21T15:04:33.487Z,28.10
2019-01-21T15:07:29.278Z,26.85
2019-01-21T15:10:47.349Z,25.32
2019-01-21T15:13:33.744Z,27.37
2019-01-21T15:16:15.390Z,25.05
2019-01-21T15:19:05.241Z,26.60
2019-01-21T15:22:09.471Z,26.02
2019-01-21T15:24:57.175Z,25.00
2019-01-21T15:27:47.283Z,23.85
2019-01-21T15:30:23.488Z,26.50
2019-01-21T15:33:05.755Z,27.20
2019-01-21T15:36:10.460Z,26.90
2019-01-21T15:39:33.574Z,26.27
2019-01-21T15:42:19.210Z,25.27
2019-01-21T15:44:49.191Z,25.68
2019-01-21T15:47:37.380Z,28.35
2019-01-21T15:50:17.826Z,26.95
2019-01-21T15:52:55.214Z,28.98
2019-01-21T15:55:46.843Z,26.23
2019-01-21T15:58:37.348Z,26.97
2019-01-21T16:01:40.842Z,27.35
2019-01-21T16:04:27.066Z,27.30
2019-01-21T16:07:17.028Z,28.38
2019-01-21T16:10:48.944Z,27.00
2019-01-21T16:13:32.194Z,26.90
2019-01-21T16:17:01.658Z,26.65
2019-01-21T16:19:36.825Z,29.30
2019-01-21T16:23:01.008Z,27.75
2019-01-21T16:25:46.271Z,28.20
2019-01-21T16:28:47.400Z,28.17
2019-01-21T16:31:24.202Z,27.00
2019-01-21T16:34:17.107Z,26.25
2019-01-21T16:37:40.096Z,28.10
2019-01-21T16:40:54.936Z,27.75
2019-01-21T16:44:20.457Z,30.95
2019-01-21T16:47:01.857Z,28.85
2019-01-21T16:49:39.970Z,29.32
2019-01-21T16:52:06.083Z,28.10
2019-01-21T16:54:58.307Z,30.70
2019-01-21T16:57:30.568Z,30.57
2019-01-21T17:00:08.370Z,29.55
2019-01-21T17:02:59.037Z,29.82
2019-01-21T17:05:40.238Z,31.85
2019-01-21T17:08:09.656Z,31.07
2019-01-21T17:10:40.015Z,30.52
2019-01-21T17:13:10.744Z,34.92
2019-01-21T17:15:54.989Z,35.83
2019-01-21T17:18:42.936Z,34.30
2019-01-21T17:21:19.108Z,29.98
2019-01-21T17:23:49.292Z,30.32
2019-01-21T17:26:31.618Z,29.52
2019-01-21T17:29:37.344Z,29.32
2019-01-21T17:32:08.848Z,28.98
2019-01-21T17:34:36.107Z,32.15
2019-01-21T17:37:23.528Z,32.55
2019-01-21T17:39:55.759Z,34.53
2019-01-21T17:42:39.507Z,32.85
2019-01-21T17:45:11.969Z,36.42
2019-01-21T17:47:46.940Z,38.50
2019-01-21T17:50:17.587Z,33.83
2019-01-21T17:52:47.844Z,35.75
2019-01-21T17:55:17.052Z,35.35
2019-01-21T17:57:43.136Z,33.23
2019-01-21T18:00:26.816Z,32.50
2019-01-21T18:03:01.879Z,30.40
2019-01-21T18:05:28.060Z,33.63
2019-01-21T18:07:59.297Z,31.37
2019-01-21T18:10:27.367Z,31.68
2019-01-21T18:13:01.596Z,33.67
2019-01-21T18:15:27.747Z,34.13
2019-01-21T18:18:00.983Z,36.60
2019-01-21T18:20:28.090Z,34.67
2019-01-21T18:22:55.175Z,35.50
2019-01-21T18:25:22.827Z,32.55
2019-01-21T18:27:55.969Z,34.53
2019-01-21T18:30:38.712Z,34.63
2019-01-21T18:33:06.723Z,35.15
2019-01-21T18:35:53.897Z,31.57
2019-01-21T18:38:20.071Z,33.78
2019-01-21T18:40:46.282Z,33.45
2019-01-21T18:43:12.443Z,32.85
2019-01-21T18:45:39.414Z,33.53
2019-01-21T18:48:05.506Z,33.63
2019-01-21T18:50:31.706Z,30.55
2019-01-21T18:53:00.020Z,32.60
2019-01-21T18:55:28.356Z,33.75
2019-01-21T18:57:56.459Z,33.63
2019-01-21T19:00:30.574Z,35.28
2019-01-21T19:02:57.774Z,34.20
2019-01-21T19:05:29.797Z,36.50
2019-01-21T19:08:00.392Z,37.23
2019-01-21T19:10:35.302Z,32.65
2019-01-21T19:13:01.452Z,37.90
2019-01-21T19:15:35.612Z,35.55
2019-01-21T19:18:01.831Z,35.78
2019-01-21T19:20:30.220Z,34.53
2019-01-21T19:23:11.761Z,37.42
2019-01-21T19:25:42.827Z,34.92
2019-01-21T19:28:09.026Z,34.98
2019-01-21T19:30:35.454Z,34.75
2019-01-21T19:33:03.028Z,37.50
2019-01-21T19:35:34.603Z,34.33
2019-01-21T19:38:13.514Z,40.52
2019-01-21T19:40:40.942Z,44.30
2019-01-21T19:43:08.176Z,38.38
2019-01-21T19:45:43.314Z,125.72
2019-01-21T19:48:11.579Z,46.18
2019-01-21T19:50:45.192Z,36.63
2019-01-21T19:53:11.353Z,36.60
2019-01-21T19:55:42.395Z,36.48
2019-01-21T19:58:17.825Z,34.95
2019-01-21T20:01:04.208Z,35.15
2019-01-21T20:03:37.693Z,36.65
2019-01-21T20:06:03.640Z,35.08
2019-01-21T20:08:31.914Z,34.98
2019-01-21T20:10:59.865Z,36.98
2019-01-21T20:13:37.738Z,38.73
2019-01-21T20:16:13.926Z,38.53
2019-01-21T20:18:45.354Z,40.60
2019-01-21T20:21:14.161Z,39.50
2019-01-21T20:23:40.406Z,42.50
2019-01-21T20:26:24.305Z,40.85
2019-01-21T20:28:56.421Z,38.67
2019-01-21T20:31:28.389Z,37.40
2019-01-21T20:33:55.553Z,38.38
2019-01-21T20:36:35.312Z,35.35
2019-01-21T20:39:06.480Z,36.05
2019-01-21T20:41:42.141Z,35.40
2019-01-21T20:44:09.199Z,36.38
2019-01-21T20:46:49.020Z,34.03
2019-01-21T20:49:21.557Z,32.80
2019-01-21T20:51:49.231Z,34.48
2019-01-21T20:54:17.333Z,35.30
2019-01-21T20:56:53.490Z,36.00
2019-01-21T20:59:19.922Z,36.75
2019-01-21T21:02:03.153Z,35.20
2019-01-21T21:04:29.245Z,35.48
2019-01-21T21:06:55.435Z,35.60
2019-01-21T21:09:30.584Z,35.58
2019-01-21T21:11:56.751Z,36.20
2019-01-21T21:14:28.807Z,43.40
2019-01-21T21:16:58.034Z,36.83
2019-01-21T21:19:25.247Z,35.65
2019-01-21T21:21:52.402Z,36.05
2019-01-21T21:24:20.938Z,35.13
2019-01-21T21:26:50.658Z,33.67
2019-01-21T21:29:20.706Z,35.63
2019-01-21T21:31:53.460Z,32.80
2019-01-21T21:34:25.637Z,33.30
2019-01-21T21:36:55.836Z,33.48
2019-01-21T21:39:30.770Z,35.80
2019-01-21T21:41:59.009Z,34.33
2019-01-21T21:44:25.540Z,32.88
2019-01-21T21:47:10.868Z,35.43
2019-01-21T21:49:37.940Z,33.88
2019-01-21T21:52:06.439Z,34.78
2019-01-21T21:54:38.789Z,35.13
2019-01-21T21:57:04.931Z,34.70
2019-01-21T21:59:31.034Z,38.10
2019-01-21T22:02:07.138Z,34.90
2019-01-21T22:04:36.692Z,36.10
2019-01-21T22:07:04.778Z,36.50
2019-01-21T22:09:30.835Z,35.08
2019-01-21T22:11:57.787Z,37.93
2019-01-21T22:14:24.992Z,39.80
2019-01-21T22:16:51.254Z,35.55
2019-01-21T22:19:17.561Z,39.33
2019-01-21T22:21:48.003Z,37.03
2019-01-21T22:24:14.937Z,35.95
2019-01-21T22:26:45.111Z,34.90
2019-01-21T22:29:13.184Z,36.93
2019-01-21T22:31:51.337Z,37.60
2019-01-21T22:34:19.871Z,37.45
2019-01-21T22:36:49.893Z,37.45
2019-01-21T22:39:16.321Z,38.63
2019-01-21T22:41:45.576Z,40.95
2019-01-21T22:44:14.564Z,38.33
2019-01-21T22:46:40.695Z,34.85
2019-01-21T22:49:11.331Z,38.83
2019-01-21T22:51:38.563Z,36.38
2019-01-21T22:54:04.893Z,36.58
2019-01-21T22:56:33.043Z,33.35
2019-01-21T22:59:03.078Z,34.67
2019-01-21T23:01:30.893Z,35.98
2019-01-21T23:04:01.423Z,37.20
2019-01-21T23:06:29.249Z,36.40
2019-01-21T23:09:07.502Z,38.58
2019-01-21T23:11:34.938Z,61.13
2019-01-21T23:14:06.986Z,37.23
2019-01-21T23:16:34.112Z,42.20
2019-01-21T23:19:00.245Z,40.43
2019-01-21T23:21:26.602Z,50.85
2019-01-21T23:24:05.012Z,40.10
2019-01-21T23:26:32.545Z,37.75
2019-01-21T23:28:59.102Z,38.75
2019-01-21T23:31:37.534Z,36.00
2019-01-21T23:34:06.879Z,37.70
2019-01-21T23:36:33.028Z,38.17
2019-01-21T23:39:12.488Z,36.17
2019-01-21T23:41:49.157Z,35.85
2019-01-21T23:44:17.252Z,36.45
2019-01-21T23:46:44.689Z,37.73
2019-01-21T23:49:11.232Z,40.75
2019-01-21T23:51:37.249Z,41.15
2019-01-21T23:54:06.654Z,40.15
2019-01-21T23:56:34.813Z,41.60
2019-01-21T23:59:00.860Z,40.05
